createdAt,value
2023-05-19T00:01:53.237Z,9.77
2023-05-19T00:04:56.847Z,8.90
2023-05-19T00:08:01.387Z,8.73
2023-05-19T00:11:05.040Z,8.27
2023-05-19T00:14:10.096Z,7.93
2023-05-19T00:17:13.597Z,6.90
2023-05-19T00:20:17.016Z,8.77
2023-05-19T00:23:20.197Z,7.82
2023-05-19T00:26:24.161Z,8.32
2023-05-19T00:29:41.775Z,6.72
2023-05-19T00:32:45.204Z,7.37
2023-05-19T00:35:48.486Z,8.82
2023-05-19T00:38:52.018Z,7.45
2023-05-19T00:41:55.513Z,7.07
2023-05-19T00:44:58.917Z,6.45
2023-05-19T00:48:02.439Z,8.33
2023-05-19T00:51:06.678Z,10.05
2023-05-19T00:54:10.423Z,6.78
2023-05-19T00:57:15.906Z,9.23
2023-05-19T01:00:19.366Z,6.22
2023-05-19T01:03:23.529Z,5.43
2023-05-19T01:06:27.825Z,8.15
2023-05-19T01:09:32.315Z,6.53
2023-05-19T01:12:36.131Z,6.00
2023-05-19T01:16:17.993Z,8.05
2023-05-19T01:19:30.856Z,4.90
2023-05-19T01:22:43.289Z,6.82
2023-05-19T01:26:16.673Z,4.72
2023-05-19T01:29:32.225Z,5.13
2023-05-19T01:32:37.722Z,5.38
2023-05-19T01:35:42.874Z,11.40
2023-05-19T01:38:48.441Z,7.82
2023-05-19T01:41:52.448Z,7.72
2023-05-19T01:44:57.032Z,6.68
2023-05-19T01:48:03.685Z,6.57
2023-05-19T01:51:07.009Z,6.37
2023-05-19T01:54:10.210Z,6.72
2023-05-19T01:57:28.975Z,6.15
2023-05-19T02:00:38.378Z,7.03
2023-05-19T02:04:19.899Z,6.85
2023-05-19T02:07:23.107Z,7.90
2023-05-19T02:10:33.421Z,5.57
2023-05-19T02:13:43.469Z,6.70
2023-05-19T02:16:48.784Z,10.15
2023-05-19T02:19:52.175Z,7.55
2023-05-19T02:22:55.411Z,5.90
2023-05-19T02:25:58.622Z,6.32
2023-05-19T02:29:02.165Z,7.88
2023-05-19T02:32:06.131Z,7.45
2023-05-19T02:35:09.859Z,6.68
2023-05-19T02:38:13.439Z,6.90
2023-05-19T02:41:16.599Z,6.78
2023-05-19T02:44:19.826Z,6.13
2023-05-19T02:47:23.251Z,7.35
2023-05-19T02:50:26.550Z,6.22
2023-05-19T02:53:32.185Z,6.97
2023-05-19T02:56:35.866Z,6.90
2023-05-19T02:59:39.228Z,6.82
2023-05-19T03:02:44.135Z,5.82
2023-05-19T03:05:48.266Z,5.60
2023-05-19T03:08:51.928Z,6.40
2023-05-19T03:11:55.212Z,6.68
2023-05-19T03:14:58.490Z,7.57
2023-05-19T03:18:01.768Z,5.68
2023-05-19T03:21:06.071Z,7.10
2023-05-19T03:24:09.299Z,7.03
2023-05-19T03:27:13.344Z,6.22
2023-05-19T03:30:16.665Z,5.75
2023-05-19T03:33:37.049Z,6.63
2023-05-19T03:36:40.772Z,8.75
2023-05-19T03:39:49.300Z,8.03
2023-05-19T03:42:54.408Z,6.50
2023-05-19T03:45:58.079Z,7.75
2023-05-19T03:49:19.868Z,7.88
2023-05-19T03:52:46.626Z,5.95
2023-05-19T03:56:00.696Z,5.77
2023-05-19T03:59:06.221Z,5.95
2023-05-19T04:02:09.752Z,5.63
2023-05-19T04:05:13.024Z,6.82
2023-05-19T04:08:16.256Z,7.13
2023-05-19T04:11:22.425Z,7.90
2023-05-19T04:14:25.729Z,6.97
2023-05-19T04:17:29.380Z,7.03
2023-05-19T04:20:32.919Z,7.35
2023-05-19T04:23:36.287Z,7.45
2023-05-19T04:26:42.503Z,5.13
2023-05-19T04:29:48.430Z,7.32
2023-05-19T04:32:52.119Z,6.13
2023-05-19T04:35:55.471Z,5.88
2023-05-19T04:39:07.014Z,8.18
2023-05-19T04:42:11.812Z,6.70
2023-05-19T04:45:15.642Z,7.22
2023-05-19T04:48:23.174Z,7.93
2023-05-19T04:51:30.336Z,5.55
2023-05-19T04:54:37.192Z,12.63
2023-05-19T04:57:40.983Z,5.17
2023-05-19T05:00:44.316Z,5.22
2023-05-19T05:03:48.597Z,6.40
2023-05-19T05:06:52.460Z,5.95
2023-05-19T05:09:57.192Z,5.78
2023-05-19T05:13:01.191Z,7.20
2023-05-19T05:16:06.705Z,6.50
2023-05-19T05:19:14.480Z,8.60
2023-05-19T05:22:20.585Z,6.45
2023-05-19T05:25:24.443Z,6.00
2023-05-19T05:28:27.908Z,7.13
2023-05-19T05:31:31.657Z,6.03
2023-05-19T05:34:36.072Z,5.53
2023-05-19T05:37:39.366Z,7.65
2023-05-19T05:40:42.989Z,5.78
2023-05-19T05:43:46.600Z,14.40
2023-05-19T05:46:50.352Z,5.80
2023-05-19T05:49:55.556Z,5.95
2023-05-19T05:53:03.494Z,6.13
2023-05-19T05:56:08.065Z,8.25
2023-05-19T05:59:20.387Z,6.70
2023-05-19T06:02:23.931Z,6.20
2023-05-19T06:05:30.321Z,6.65
2023-05-19T06:08:34.023Z,8.07
2023-05-19T06:11:37.602Z,5.78
2023-05-19T06:14:41.846Z,6.53
2023-05-19T06:17:51.617Z,8.53
2023-05-19T06:20:56.182Z,7.20
2023-05-19T06:23:59.796Z,10.77
2023-05-19T06:27:04.043Z,7.13
2023-05-19T06:30:08.847Z,8.67
2023-05-19T06:33:21.144Z,7.90
2023-05-19T06:36:24.495Z,7.57
2023-05-19T06:39:31.148Z,6.22
2023-05-19T06:42:34.388Z,5.80
2023-05-19T06:45:51.579Z,6.20
2023-05-19T06:48:55.291Z,11.30
2023-05-19T06:52:02.990Z,5.22
2023-05-19T06:55:06.862Z,9.05
2023-05-19T06:58:12.317Z,6.53
2023-05-19T07:01:15.600Z,6.70
2023-05-19T07:04:24.829Z,6.93
2023-05-19T07:07:28.387Z,6.75
2023-05-19T07:10:33.359Z,8.05
2023-05-19T07:13:37.580Z,7.55
2023-05-19T07:16:40.930Z,7.67
2023-05-19T07:19:44.419Z,7.83
2023-05-19T07:22:47.828Z,7.10
2023-05-19T07:25:56.733Z,8.70
2023-05-19T07:29:00.543Z,6.43
2023-05-19T07:32:04.130Z,8.70
2023-05-19T07:35:07.752Z,11.70
2023-05-19T07:38:11.026Z,6.95
2023-05-19T07:41:14.468Z,9.20
2023-05-19T07:44:20.214Z,7.65
2023-05-19T07:47:23.807Z,7.43
2023-05-19T07:50:29.931Z,8.60
2023-05-19T07:53:33.259Z,7.65
2023-05-19T07:56:36.718Z,8.85
2023-05-19T07:59:40.329Z,6.95
2023-05-19T08:02:44.285Z,7.97
2023-05-19T08:05:47.721Z,8.33
2023-05-19T08:08:51.627Z,10.32
2023-05-19T08:11:55.137Z,7.60
2023-05-19T08:15:01.019Z,9.27
2023-05-19T08:18:05.451Z,6.93
2023-05-19T08:21:08.986Z,8.60
2023-05-19T08:24:12.626Z,9.07
2023-05-19T08:27:16.789Z,8.30
2023-05-19T08:30:20.099Z,9.05
2023-05-19T08:33:23.454Z,8.20
2023-05-19T08:36:27.922Z,7.43
2023-05-19T08:39:33.558Z,6.72
2023-05-19T08:42:36.867Z,8.25
2023-05-19T08:45:45.563Z,8.38
2023-05-19T08:48:49.740Z,7.60
2023-05-19T08:52:30.349Z,8.53
2023-05-19T08:55:53.389Z,6.93
2023-05-19T08:58:59.798Z,8.85
2023-05-19T09:02:04.283Z,7.32
2023-05-19T09:05:07.945Z,9.27
2023-05-19T09:08:11.400Z,9.53
2023-05-19T09:11:15.024Z,6.57
2023-05-19T09:14:18.164Z,7.43
2023-05-19T09:17:21.418Z,10.32
2023-05-19T09:20:24.560Z,7.30
2023-05-19T09:23:31.721Z,7.60
2023-05-19T09:26:41.669Z,8.07
2023-05-19T09:29:44.768Z,7.82
2023-05-19T09:32:50.943Z,7.43
2023-05-19T09:35:55.739Z,9.33
2023-05-19T09:38:58.756Z,8.27
2023-05-19T09:42:05.300Z,6.70
2023-05-19T09:45:12.188Z,7.47
2023-05-19T09:48:16.430Z,9.93
2023-05-19T09:51:21.453Z,6.77
2023-05-19T09:54:25.337Z,7.87
2023-05-19T09:57:29.584Z,7.63
2023-05-19T10:00:34.198Z,7.97
2023-05-19T10:03:39.304Z,8.15
2023-05-19T10:06:43.750Z,8.27
2023-05-19T10:09:48.969Z,7.83
2023-05-19T10:12:52.460Z,7.43
2023-05-19T10:15:58.623Z,7.90
2023-05-19T10:19:04.777Z,9.20
2023-05-19T10:22:08.142Z,7.27
2023-05-19T10:25:16.905Z,9.83
2023-05-19T10:28:23.736Z,10.07
2023-05-19T10:31:27.599Z,6.47
2023-05-19T10:34:57.286Z,7.93
2023-05-19T10:38:17.896Z,7.37
2023-05-19T10:41:30.915Z,10.03
2023-05-19T10:45:11.971Z,8.18
2023-05-19T10:48:17.009Z,8.55
2023-05-19T10:51:20.522Z,9.23
2023-05-19T10:54:46.249Z,9.17
2023-05-19T10:57:58.637Z,6.77
2023-05-19T11:01:01.991Z,6.88
2023-05-19T11:04:14.110Z,6.82
2023-05-19T11:07:22.481Z,8.35
2023-05-19T11:10:26.178Z,10.07
2023-05-19T11:13:29.511Z,6.90
2023-05-19T11:16:34.823Z,9.98
2023-05-19T11:19:42.084Z,10.63
2023-05-19T11:23:04.444Z,13.93
2023-05-19T11:26:09.219Z,7.43
2023-05-19T11:29:12.929Z,7.60
2023-05-19T11:32:17.124Z,9.05
2023-05-19T11:35:21.525Z,8.55
2023-05-19T11:38:25.174Z,8.82
2023-05-19T11:41:30.642Z,6.43
2023-05-19T11:44:34.273Z,6.90
2023-05-19T11:47:50.824Z,7.43
2023-05-19T11:51:01.576Z,10.35
2023-05-19T11:54:04.954Z,6.10
2023-05-19T11:57:13.391Z,6.37
2023-05-19T12:00:16.923Z,8.07
2023-05-19T12:03:23.177Z,8.63
2023-05-19T12:06:27.663Z,8.50
2023-05-19T12:09:31.060Z,9.45
2023-05-19T12:12:35.963Z,7.37
2023-05-19T12:15:39.728Z,8.60
2023-05-19T12:18:43.149Z,10.10
2023-05-19T12:21:46.593Z,8.43
2023-05-19T12:24:50.713Z,7.47
2023-05-19T12:27:59.507Z,8.47
2023-05-19T12:31:03.484Z,11.10
2023-05-19T12:34:06.868Z,6.90
2023-05-19T12:37:11.504Z,8.05
2023-05-19T12:40:17.023Z,7.55
2023-05-19T12:43:25.103Z,7.50
2023-05-19T12:46:28.992Z,7.93
2023-05-19T12:49:32.905Z,11.68
2023-05-19T12:52:51.926Z,6.47
2023-05-19T12:55:56.675Z,8.35
2023-05-19T12:59:02.040Z,11.30
2023-05-19T13:02:05.495Z,6.10
2023-05-19T13:05:09.186Z,7.05
2023-05-19T13:08:17.077Z,7.80
2023-05-19T13:11:20.409Z,6.93
2023-05-19T13:14:23.657Z,9.87
2023-05-19T13:17:26.866Z,6.80
2023-05-19T13:20:30.432Z,11.95
2023-05-19T13:23:34.842Z,6.70
2023-05-19T13:26:39.423Z,7.93
2023-05-19T13:29:42.654Z,7.47
2023-05-19T13:32:46.449Z,8.00
2023-05-19T13:35:50.012Z,9.57
2023-05-19T13:38:53.708Z,8.27
2023-05-19T13:41:59.493Z,7.88
2023-05-19T13:45:03.264Z,8.70
2023-05-19T13:48:07.698Z,6.80
2023-05-19T13:51:12.275Z,6.97
2023-05-19T13:54:15.594Z,8.65
2023-05-19T13:57:18.916Z,8.98
2023-05-19T14:00:22.352Z,8.60
2023-05-19T14:03:26.306Z,7.37
2023-05-19T14:06:29.698Z,7.28
2023-05-19T14:09:33.082Z,8.38
2023-05-19T14:12:44.997Z,7.85
2023-05-19T14:15:55.324Z,7.60
2023-05-19T14:18:58.683Z,7.47
2023-05-19T14:22:01.923Z,9.60
2023-05-19T14:25:05.459Z,8.93
2023-05-19T14:28:10.675Z,6.85
2023-05-19T14:31:14.485Z,9.00
2023-05-19T14:34:21.122Z,7.80
2023-05-19T14:37:26.562Z,9.93
2023-05-19T14:40:29.901Z,7.88
2023-05-19T14:43:33.390Z,10.80
2023-05-19T14:46:36.853Z,10.53
2023-05-19T14:49:40.307Z,10.43
2023-05-19T14:52:43.631Z,7.70
2023-05-19T14:55:49.651Z,12.02
2023-05-19T14:58:53.560Z,9.02
2023-05-19T15:01:56.871Z,9.27
2023-05-19T15:05:01.084Z,11.50
2023-05-19T15:08:06.192Z,11.07
2023-05-19T15:11:09.808Z,9.10
2023-05-19T15:14:13.006Z,8.88
2023-05-19T15:17:16.335Z,9.33
2023-05-19T15:20:19.947Z,10.77
2023-05-19T15:23:23.376Z,12.88
2023-05-19T15:26:29.538Z,10.38
2023-05-19T15:29:33.155Z,11.80
2023-05-19T15:32:36.544Z,19.10
2023-05-19T15:35:40.128Z,12.03
2023-05-19T15:38:43.403Z,9.50
2023-05-19T15:41:46.769Z,10.73
2023-05-19T15:44:49.924Z,9.43
2023-05-19T15:47:53.555Z,8.43
2023-05-19T15:50:58.283Z,9.60
2023-05-19T15:54:01.689Z,8.88
2023-05-19T15:57:05.051Z,9.98
2023-05-19T16:00:09.123Z,8.95
2023-05-19T16:03:12.650Z,11.07
2023-05-19T16:06:16.137Z,9.27
2023-05-19T16:09:19.331Z,11.23
2023-05-19T16:12:23.771Z,10.63
2023-05-19T16:15:26.935Z,10.77
2023-05-19T16:18:30.219Z,12.70
2023-05-19T16:21:33.433Z,11.63
2023-05-19T16:24:36.688Z,15.95
2023-05-19T16:27:39.941Z,14.25
2023-05-19T16:30:43.773Z,12.35
2023-05-19T16:33:47.056Z,12.27
2023-05-19T16:36:50.335Z,8.97
2023-05-19T16:39:53.576Z,13.00
2023-05-19T16:42:56.868Z,10.02
2023-05-19T16:46:00.163Z,12.52
2023-05-19T16:49:03.462Z,10.33
2023-05-19T16:52:07.851Z,9.10
2023-05-19T16:55:11.558Z,12.73
2023-05-19T16:58:14.843Z,11.93
2023-05-19T17:01:18.189Z,10.77
2023-05-19T17:04:21.633Z,14.77
2023-05-19T17:07:24.878Z,9.67
2023-05-19T17:10:28.075Z,8.57
2023-05-19T17:13:33.832Z,9.88
2023-05-19T17:16:37.782Z,8.80
2023-05-19T17:19:41.044Z,8.77
2023-05-19T17:22:44.366Z,9.93
2023-05-19T17:25:47.891Z,8.98
2023-05-19T17:28:51.232Z,8.90
2023-05-19T17:31:54.993Z,11.20
2023-05-19T17:34:58.973Z,9.57
2023-05-19T17:38:02.290Z,9.40
2023-05-19T17:41:14.140Z,9.07
2023-05-19T17:44:17.582Z,11.90
2023-05-19T17:47:21.051Z,10.88
2023-05-19T17:50:24.268Z,9.63
2023-05-19T17:53:27.721Z,11.87
2023-05-19T17:56:34.378Z,10.05
2023-05-19T17:59:37.888Z,10.88
2023-05-19T18:02:41.656Z,9.30
2023-05-19T18:05:45.626Z,9.87
2023-05-19T18:08:51.544Z,8.47
2023-05-19T18:11:55.143Z,10.32
2023-05-19T18:14:58.630Z,9.70
2023-05-19T18:18:03.694Z,11.20
2023-05-19T18:21:07.433Z,9.80
2023-05-19T18:24:11.701Z,10.60
2023-05-19T18:27:39.682Z,12.32
2023-05-19T18:30:45.559Z,11.25
2023-05-19T18:33:51.892Z,11.82
2023-05-19T18:36:55.776Z,11.93
2023-05-19T18:40:00.112Z,12.80
2023-05-19T18:43:03.575Z,12.30
2023-05-19T18:46:07.107Z,10.93
2023-05-19T18:49:12.822Z,17.17
2023-05-19T18:52:16.256Z,15.50
2023-05-19T18:55:19.549Z,14.87
2023-05-19T18:58:22.806Z,12.55
2023-05-19T19:01:26.201Z,11.45
2023-05-19T19:04:29.618Z,14.15
2023-05-19T19:07:32.913Z,12.87
2023-05-19T19:10:39.177Z,15.43
2023-05-19T19:13:43.630Z,9.75
2023-05-19T19:16:49.773Z,11.27
2023-05-19T19:19:53.139Z,13.63
2023-05-19T19:22:56.903Z,11.30
2023-05-19T19:26:00.443Z,10.73
2023-05-19T19:29:03.906Z,11.05
2023-05-19T19:32:07.556Z,12.32
2023-05-19T19:35:11.258Z,12.23
2023-05-19T19:38:14.781Z,17.43
2023-05-19T19:41:19.920Z,10.83
2023-05-19T19:44:23.973Z,11.70
2023-05-19T19:47:27.844Z,11.77
2023-05-19T19:50:31.500Z,10.50
2023-05-19T19:53:34.918Z,13.13
2023-05-19T19:56:38.111Z,10.43
2023-05-19T19:59:41.388Z,12.63
2023-05-19T20:03:03.075Z,9.70
2023-05-19T20:06:07.789Z,10.35
2023-05-19T20:09:11.032Z,12.77
2023-05-19T20:12:14.363Z,10.50
2023-05-19T20:15:17.739Z,11.73
2023-05-19T20:18:20.984Z,10.27
2023-05-19T20:21:24.157Z,10.05
2023-05-19T20:24:27.529Z,9.53
2023-05-19T20:27:30.753Z,13.57
2023-05-19T20:30:34.242Z,12.98
2023-05-19T20:33:37.691Z,11.52
2023-05-19T20:36:41.124Z,12.75
2023-05-19T20:39:44.422Z,14.73
2023-05-19T20:42:47.747Z,14.23
2023-05-19T20:45:51.458Z,13.95
2023-05-19T20:48:54.936Z,12.35
2023-05-19T20:51:58.233Z,12.23
2023-05-19T20:55:01.453Z,13.90
2023-05-19T20:58:04.898Z,18.10
2023-05-19T21:01:08.228Z,14.45
2023-05-19T21:04:11.763Z,13.60
2023-05-19T21:07:15.095Z,15.02
2023-05-19T21:10:18.423Z,16.23
2023-05-19T21:13:21.720Z,18.67
2023-05-19T21:16:25.275Z,17.25
2023-05-19T21:19:28.742Z,19.27
2023-05-19T21:22:32.257Z,18.92
2023-05-19T21:25:35.899Z,16.17
2023-05-19T21:28:39.196Z,20.47
2023-05-19T21:31:42.480Z,17.42
2023-05-19T21:34:45.870Z,16.35
2023-05-19T21:37:49.041Z,23.02
2023-05-19T21:40:53.243Z,16.47
2023-05-19T21:43:56.550Z,17.90
2023-05-19T21:47:00.033Z,23.52
2023-05-19T21:50:03.360Z,21.02
2023-05-19T21:53:06.687Z,21.77
2023-05-19T21:56:10.026Z,17.70
2023-05-19T21:59:13.594Z,16.63
2023-05-19T22:02:17.088Z,19.13
2023-05-19T22:05:20.312Z,21.10
2023-05-19T22:08:23.619Z,17.35
2023-05-19T22:11:26.921Z,25.67
2023-05-19T22:14:30.233Z,21.57
2023-05-19T22:17:33.444Z,17.58
2023-05-19T22:20:37.713Z,18.55
2023-05-19T22:23:41.115Z,18.20
2023-05-19T22:26:44.526Z,18.43
2023-05-19T22:29:47.847Z,15.63
2023-05-19T22:32:51.249Z,17.88
2023-05-19T22:35:54.474Z,20.75
2023-05-19T22:38:57.764Z,21.60
2023-05-19T22:42:01.363Z,18.23
2023-05-19T22:45:05.216Z,20.10
2023-05-19T22:48:08.554Z,20.63
2023-05-19T22:51:12.035Z,20.92
2023-05-19T22:54:15.476Z,21.42
2023-05-19T22:57:19.450Z,18.33
2023-05-19T23:00:22.747Z,18.80
2023-05-19T23:03:26.196Z,20.55
2023-05-19T23:06:29.466Z,20.17
2023-05-19T23:09:32.766Z,21.83
2023-05-19T23:12:36.047Z,20.83
2023-05-19T23:15:39.227Z,22.80
2023-05-19T23:18:42.566Z,27.02
2023-05-19T23:21:48.146Z,23.73
2023-05-19T23:24:51.440Z,24.15
2023-05-19T23:27:54.764Z,22.40
2023-05-19T23:30:58.041Z,23.67
2023-05-19T23:34:12.584Z,21.88
2023-05-19T23:37:16.326Z,22.48
2023-05-19T23:40:19.674Z,20.42
2023-05-19T23:43:22.912Z,20.17
2023-05-19T23:46:26.377Z,16.17
2023-05-19T23:49:29.659Z,20.00
2023-05-19T23:52:32.976Z,23.08
2023-05-19T23:55:36.379Z,20.17
2023-05-19T23:58:39.910Z,20.53
